createdAt,value
2017-07-26T00:00:26.403Z,2.77
2017-07-26T00:02:53.328Z,2.53
2017-07-26T00:05:20.178Z,1.77
2017-07-26T00:07:47.043Z,2.17
2017-07-26T00:10:13.991Z,2.40
2017-07-26T00:12:40.840Z,2.40
2017-07-26T00:15:07.685Z,1.80
2017-07-26T00:17:34.768Z,2.40
2017-07-26T00:20:02.456Z,2.57
2017-07-26T00:22:29.329Z,2.50
2017-07-26T00:24:56.167Z,2.10
2017-07-26T00:27:23.073Z,2.17
2017-07-26T00:29:50.652Z,2.10
2017-07-26T00:32:17.596Z,2.43
2017-07-26T00:34:44.436Z,1.80
2017-07-26T00:37:11.353Z,2.00
2017-07-26T00:39:38.321Z,1.37
2017-07-26T00:42:05.987Z,1.93
2017-07-26T00:44:32.913Z,2.00
2017-07-26T00:47:00.568Z,1.90
2017-07-26T00:49:27.493Z,2.00
2017-07-26T00:51:54.347Z,1.90
2017-07-26T00:54:21.192Z,2.53
2017-07-26T00:56:48.096Z,2.30
2017-07-26T00:59:14.942Z,1.70
2017-07-26T01:01:41.883Z,2.30
2017-07-26T01:04:08.798Z,2.30
2017-07-26T01:06:36.382Z,2.13
2017-07-26T01:09:03.432Z,2.30
2017-07-26T01:11:30.283Z,3.00
2017-07-26T01:13:57.178Z,2.73
2017-07-26T01:16:24.091Z,2.40
2017-07-26T01:18:50.926Z,2.70
2017-07-26T01:21:17.852Z,2.87
2017-07-26T01:23:44.694Z,2.47
2017-07-26T01:26:11.565Z,2.70
2017-07-26T01:28:38.490Z,3.17
2017-07-26T01:31:05.352Z,3.00
2017-07-26T01:33:32.217Z,3.20
2017-07-26T01:35:59.189Z,3.10
2017-07-26T01:38:26.108Z,3.57
2017-07-26T01:40:53.012Z,3.67
2017-07-26T01:43:19.976Z,4.50
2017-07-26T01:45:46.887Z,4.00
2017-07-26T01:48:14.488Z,4.50
2017-07-26T01:50:41.413Z,4.50
2017-07-26T01:53:08.281Z,4.33
2017-07-26T01:55:35.239Z,4.37
2017-07-26T01:58:02.121Z,5.10
2017-07-26T02:00:29.792Z,4.83
2017-07-26T02:02:57.392Z,5.53
2017-07-26T02:05:24.342Z,4.40
2017-07-26T02:07:51.208Z,5.43
2017-07-26T02:10:18.063Z,4.53
2017-07-26T02:12:44.995Z,5.67
2017-07-26T02:15:11.912Z,5.33
2017-07-26T02:17:38.832Z,6.47
2017-07-26T02:20:05.666Z,4.90
2017-07-26T02:22:32.608Z,6.13
2017-07-26T02:24:59.446Z,6.33
2017-07-26T02:27:27.083Z,5.60
2017-07-26T02:29:53.992Z,5.73
2017-07-26T02:32:20.857Z,5.63
2017-07-26T02:34:47.802Z,6.07
2017-07-26T02:37:14.727Z,6.00
2017-07-26T02:39:41.590Z,6.17
2017-07-26T02:42:08.509Z,6.23
2017-07-26T02:44:35.415Z,5.87
2017-07-26T02:47:02.269Z,5.73
2017-07-26T02:49:29.202Z,5.90
2017-07-26T02:51:56.111Z,6.77
2017-07-26T02:54:23.027Z,6.80
2017-07-26T02:56:49.909Z,6.67
2017-07-26T02:59:16.837Z,7.23
2017-07-26T03:01:43.764Z,7.20
2017-07-26T03:04:11.357Z,6.80
2017-07-26T03:06:38.300Z,8.57
2017-07-26T03:09:05.172Z,7.77
2017-07-26T03:11:32.019Z,8.20
2017-07-26T03:13:58.936Z,7.50
2017-07-26T03:16:25.775Z,8.03
2017-07-26T03:18:52.648Z,8.90
2017-07-26T03:21:19.572Z,9.90
2017-07-26T03:23:46.404Z,9.63
2017-07-26T03:26:13.247Z,9.03
2017-07-26T03:28:40.167Z,9.87
2017-07-26T03:31:07.025Z,9.30
2017-07-26T03:33:34.392Z,9.50
2017-07-26T03:36:01.267Z,8.10
2017-07-26T03:38:28.114Z,8.80
2017-07-26T03:40:55.018Z,9.70
2017-07-26T03:43:22.023Z,9.40
2017-07-26T03:45:48.864Z,10.67
2017-07-26T03:48:15.706Z,9.23
2017-07-26T03:50:42.630Z,10.40
2017-07-26T03:53:09.524Z,10.90
2017-07-26T03:55:37.199Z,10.27
2017-07-26T03:58:04.821Z,10.03
2017-07-26T04:00:31.696Z,11.77
2017-07-26T04:02:58.628Z,10.27
2017-07-26T04:05:25.473Z,10.97
2017-07-26T04:07:52.312Z,11.40
2017-07-26T04:10:19.238Z,12.33
2017-07-26T04:12:46.084Z,11.77
2017-07-26T04:15:13.006Z,12.43
2017-07-26T04:17:39.859Z,11.30
2017-07-26T04:20:06.693Z,12.20
2017-07-26T04:22:33.702Z,12.33
2017-07-26T04:25:00.548Z,11.87
2017-07-26T04:27:32.169Z,12.13
2017-07-26T04:29:59.258Z,13.30
2017-07-26T04:32:26.851Z,12.43
2017-07-26T04:34:53.709Z,13.30
2017-07-26T04:37:20.665Z,14.23
2017-07-26T04:39:47.540Z,11.80
2017-07-26T04:42:14.489Z,14.03
2017-07-26T04:44:42.144Z,11.80
2017-07-26T04:47:09.011Z,12.57
2017-07-26T04:49:36.586Z,12.03
2017-07-26T04:52:03.515Z,13.13
2017-07-26T04:54:31.253Z,13.63
2017-07-26T04:56:58.075Z,13.60
2017-07-26T04:59:24.919Z,12.10
2017-07-26T05:01:51.819Z,14.33
2017-07-26T05:04:18.646Z,13.77
2017-07-26T05:06:45.592Z,12.90
2017-07-26T05:09:12.459Z,13.60
2017-07-26T05:11:39.328Z,13.33
2017-07-26T05:14:06.325Z,14.60
2017-07-26T05:16:33.175Z,14.73
2017-07-26T05:19:00.019Z,15.37
2017-07-26T05:21:26.979Z,16.03
2017-07-26T05:23:54.571Z,15.60
2017-07-26T05:26:21.480Z,15.27
2017-07-26T05:28:49.132Z,15.13
2017-07-26T05:31:16.044Z,15.77
2017-07-26T05:33:42.918Z,15.57
2017-07-26T05:36:09.782Z,15.13
2017-07-26T05:38:37.447Z,15.67
2017-07-26T05:41:04.307Z,15.27
2017-07-26T05:43:31.158Z,17.17
2017-07-26T05:45:58.059Z,16.70
2017-07-26T05:48:24.979Z,17.10
2017-07-26T05:50:51.928Z,17.33
2017-07-26T05:53:18.776Z,18.43
2017-07-26T05:55:45.718Z,18.60
2017-07-26T05:58:12.643Z,18.50
2017-07-26T06:00:39.515Z,17.40
2017-07-26T06:03:06.375Z,18.83
2017-07-26T06:05:33.329Z,18.97
2017-07-26T06:08:01.272Z,19.37
2017-07-26T06:10:28.212Z,18.40
2017-07-26T06:12:55.084Z,17.87
2017-07-26T06:15:22.723Z,20.97
2017-07-26T06:17:49.678Z,18.90
2017-07-26T06:20:21.168Z,20.07
2017-07-26T06:22:48.132Z,17.13
2017-07-26T06:25:16.322Z,18.80
2017-07-26T06:27:43.904Z,19.53
2017-07-26T06:30:11.869Z,17.70
2017-07-26T06:32:38.699Z,18.67
2017-07-26T06:35:05.623Z,18.30
2017-07-26T06:37:32.546Z,18.43
2017-07-26T06:39:59.409Z,19.23
2017-07-26T06:42:26.237Z,19.80
2017-07-26T06:44:53.982Z,18.03
2017-07-26T06:47:20.852Z,19.77
2017-07-26T06:49:47.730Z,19.30
2017-07-26T06:52:14.659Z,18.37
2017-07-26T06:54:41.580Z,18.30
2017-07-26T06:57:08.418Z,18.90
2017-07-26T06:59:35.256Z,17.93
2017-07-26T07:02:02.279Z,19.67
2017-07-26T07:04:39.185Z,20.67
2017-07-26T07:07:13.974Z,19.00
2017-07-26T07:09:46.222Z,19.10
2017-07-26T07:12:24.581Z,19.80
2017-07-26T07:14:55.853Z,19.60
2017-07-26T07:17:24.476Z,17.50
2017-07-26T07:19:54.058Z,18.87
2017-07-26T07:22:23.323Z,19.60
2017-07-26T07:24:55.287Z,21.93
2017-07-26T07:27:30.789Z,19.30
2017-07-26T07:30:05.089Z,20.87
2017-07-26T07:32:36.845Z,19.73
2017-07-26T07:35:08.256Z,19.33
2017-07-26T07:37:35.388Z,20.67
2017-07-26T07:40:12.959Z,20.47
2017-07-26T07:42:47.086Z,19.03
2017-07-26T07:45:15.540Z,18.20
2017-07-26T07:50:26.232Z,15.70
2017-07-26T07:53:03.995Z,15.67
2017-07-26T07:55:31.006Z,14.90
2017-07-26T07:58:03.198Z,11.57
2017-07-26T08:00:40.181Z,9.20
2017-07-26T08:03:07.162Z,10.10
2017-07-26T08:05:45.761Z,9.23
2017-07-26T08:08:13.506Z,8.20
2017-07-26T08:10:45.728Z,8.00
2017-07-26T08:13:14.222Z,7.23
2017-07-26T08:15:50.401Z,7.93
2017-07-26T08:18:21.304Z,7.43
2017-07-26T08:20:48.992Z,6.87
2017-07-26T08:23:23.580Z,7.50
2017-07-26T08:25:53.857Z,7.40
2017-07-26T08:28:24.643Z,6.37
2017-07-26T08:31:04.735Z,5.53
2017-07-26T08:33:33.910Z,6.17
2017-07-26T08:36:03.889Z,5.83
2017-07-26T08:38:33.259Z,6.60
2017-07-26T08:41:04.657Z,6.27
2017-07-26T08:43:35.969Z,7.50
2017-07-26T08:46:03.384Z,6.80
2017-07-26T08:48:31.087Z,6.47
2017-07-26T08:51:03.509Z,6.93
2017-07-26T08:53:33.428Z,7.23
2017-07-26T08:56:00.474Z,7.10
2017-07-26T08:58:35.821Z,8.60
2017-07-26T09:01:14.125Z,9.27
2017-07-26T09:03:45.405Z,8.00
2017-07-26T09:06:20.699Z,8.07
2017-07-26T09:08:51.140Z,8.63
2017-07-26T09:11:18.599Z,9.40
2017-07-26T09:13:47.405Z,8.93
2017-07-26T09:16:14.465Z,11.87
2017-07-26T09:18:42.572Z,12.00
2017-07-26T09:21:09.436Z,11.37
2017-07-26T09:23:43.494Z,10.53
2017-07-26T09:26:16.774Z,10.93
2017-07-26T09:28:48.590Z,13.20
2017-07-26T09:31:15.599Z,14.17
2017-07-26T09:33:49.745Z,13.10
2017-07-26T09:36:18.630Z,12.70
2017-07-26T09:38:47.741Z,13.53
2017-07-26T09:41:19.735Z,13.83
2017-07-26T09:43:57.086Z,14.10
2017-07-26T09:46:24.940Z,13.13
2017-07-26T09:48:59.990Z,13.93
2017-07-26T09:51:27.245Z,14.70
2017-07-26T09:54:11.246Z,14.40
2017-07-26T09:56:50.991Z,13.60
2017-07-26T09:59:30.675Z,14.30
2017-07-26T10:02:09.997Z,13.10
2017-07-26T10:04:39.632Z,12.13
2017-07-26T10:07:16.506Z,13.90
2017-07-26T10:09:58.303Z,12.40
2017-07-26T10:12:27.842Z,14.13
2017-07-26T10:15:05.369Z,13.90
2017-07-26T10:17:46.013Z,13.73
2017-07-26T10:20:24.354Z,13.37
2017-07-26T10:22:56.954Z,13.67
2017-07-26T10:25:25.373Z,13.10
2017-07-26T10:27:53.248Z,15.07
2017-07-26T10:30:21.559Z,15.47
2017-07-26T10:32:53.962Z,16.07
2017-07-26T10:35:28.096Z,16.57
2017-07-26T10:38:08.630Z,13.57
2017-07-26T10:40:51.905Z,13.10
2017-07-26T10:43:20.363Z,13.33
2017-07-26T10:46:03.127Z,13.53
2017-07-26T10:48:41.587Z,12.60
2017-07-26T10:51:09.731Z,14.00
2017-07-26T10:53:43.120Z,12.73
2017-07-26T10:56:19.048Z,12.70
2017-07-26T10:58:47.704Z,13.00
2017-07-26T11:01:17.716Z,13.80
2017-07-26T11:03:58.421Z,12.90
2017-07-26T11:06:37.184Z,12.20
2017-07-26T11:09:15.015Z,11.97
2017-07-26T11:11:42.501Z,11.03
2017-07-26T11:14:09.361Z,10.20
2017-07-26T11:16:41.594Z,10.47
2017-07-26T11:24:37.956Z,9.60
2017-07-26T11:27:04.847Z,10.77
2017-07-26T11:29:31.753Z,9.07
2017-07-26T11:31:58.739Z,10.63
2017-07-26T11:34:25.744Z,9.50
2017-07-26T11:39:50.013Z,8.93
2017-07-26T11:42:32.247Z,8.20
2017-07-26T11:45:15.110Z,9.33
2017-07-26T11:47:42.907Z,8.97
2017-07-26T11:50:24.194Z,8.20
2017-07-26T11:52:54.962Z,8.33
2017-07-26T11:55:35.714Z,8.37
2017-07-26T11:58:13.291Z,8.40
2017-07-26T12:00:41.137Z,8.43
2017-07-26T12:03:16.787Z,8.90
2017-07-26T12:08:38.544Z,8.90
2017-07-26T12:11:22.750Z,9.27
2017-07-26T12:14:10.428Z,9.30
2017-07-26T12:16:50.656Z,7.87
2017-07-26T12:24:58.203Z,8.00
2017-07-26T12:27:27.623Z,8.63
2017-07-26T12:30:09.066Z,9.20
2017-07-26T12:32:37.395Z,9.20
2017-07-26T12:35:09.933Z,9.23
2017-07-26T12:37:40.426Z,8.57
2017-07-26T12:40:27.027Z,8.43
2017-07-26T12:43:04.561Z,7.30
2017-07-26T12:45:46.361Z,7.90
2017-07-26T12:48:20.947Z,8.23
2017-07-26T12:51:02.511Z,8.10
2017-07-26T12:59:11.206Z,7.30
2017-07-26T13:01:43.078Z,6.77
2017-07-26T13:04:12.540Z,6.60
2017-07-26T13:06:41.924Z,7.80
2017-07-26T13:09:12.157Z,7.40
2017-07-26T13:11:54.890Z,6.07
2017-07-26T13:14:28.355Z,6.47
2017-07-26T13:17:04.589Z,6.67
2017-07-26T13:19:38.240Z,7.00
2017-07-26T13:22:09.335Z,6.53
2017-07-26T13:24:36.480Z,5.97
2017-07-26T13:27:03.655Z,5.70
2017-07-26T13:29:32.963Z,6.03
2017-07-26T13:32:00.148Z,5.80
2017-07-26T13:34:29.713Z,5.30
2017-07-26T13:36:58.777Z,6.27
2017-07-26T13:39:38.250Z,5.50
2017-07-26T13:42:09.837Z,5.03
2017-07-26T13:47:21.039Z,4.80
2017-07-26T13:50:00.251Z,5.10
2017-07-26T13:52:47.029Z,5.40
2017-07-26T13:55:16.707Z,5.33
2017-07-26T13:57:45.899Z,5.40
2017-07-26T14:00:21.526Z,5.23
2017-07-26T14:02:49.365Z,5.30
2017-07-26T14:05:19.540Z,5.00
2017-07-26T14:07:53.426Z,5.17
2017-07-26T14:10:32.346Z,5.13
2017-07-26T14:13:02.208Z,5.37
2017-07-26T14:15:33.143Z,6.13
2017-07-26T14:18:13.038Z,6.00
2017-07-26T14:20:43.720Z,6.27
2017-07-26T14:23:12.331Z,7.03
2017-07-26T14:25:51.913Z,7.10
2017-07-26T14:28:19.400Z,6.97
2017-07-26T14:30:51.477Z,6.97
2017-07-26T14:33:36.916Z,7.00
2017-07-26T14:36:15.052Z,7.83
2017-07-26T14:38:42.352Z,7.67
2017-07-26T14:41:16.038Z,7.70
2017-07-26T14:43:47.590Z,7.30
2017-07-26T14:46:20.828Z,7.03
2017-07-26T14:49:01.549Z,7.60
2017-07-26T14:51:29.524Z,6.83
2017-07-26T14:53:57.222Z,6.67
2017-07-26T14:56:29.926Z,6.40
2017-07-26T14:59:00.622Z,5.83
2017-07-26T15:01:27.496Z,6.30
2017-07-26T15:04:00.487Z,6.07
2017-07-26T15:06:28.993Z,5.60
2017-07-26T15:08:57.914Z,5.93
2017-07-26T15:11:24.775Z,6.53
2017-07-26T15:13:51.690Z,7.27
2017-07-26T15:16:19.261Z,6.87
2017-07-26T15:18:46.839Z,6.60
2017-07-26T15:21:13.845Z,7.10
2017-07-26T15:23:40.716Z,7.30
2017-07-26T15:26:08.305Z,6.30
2017-07-26T15:28:35.252Z,5.90
2017-07-26T15:31:02.258Z,5.90
2017-07-26T15:33:29.876Z,6.23
2017-07-26T15:35:56.799Z,6.20
2017-07-26T15:38:23.818Z,6.97
2017-07-26T15:40:50.784Z,6.20
2017-07-26T15:43:17.771Z,8.00
2017-07-26T15:45:44.643Z,8.10
2017-07-26T15:48:12.234Z,7.43
2017-07-26T15:50:39.179Z,7.60
2017-07-26T15:53:06.041Z,6.60
2017-07-26T15:55:33.006Z,6.60
2017-07-26T15:57:59.971Z,6.03
2017-07-26T16:00:26.833Z,6.57
2017-07-26T16:02:53.839Z,6.73
2017-07-26T16:05:20.717Z,7.00
2017-07-26T16:07:47.561Z,6.27
2017-07-26T16:10:14.470Z,6.80
2017-07-26T16:12:41.410Z,6.83
2017-07-26T16:15:19.711Z,7.50
2017-07-26T16:17:58.692Z,6.40
2017-07-26T16:20:42.035Z,6.17
2017-07-26T16:23:09.942Z,5.20
2017-07-26T16:25:36.908Z,4.80
2017-07-26T16:28:03.796Z,5.07
2017-07-26T16:30:30.722Z,4.70
2017-07-26T16:32:57.666Z,5.03
2017-07-26T16:35:24.633Z,4.43
2017-07-26T16:37:51.489Z,5.33
2017-07-26T16:40:19.092Z,5.50
2017-07-26T16:42:46.020Z,4.63
2017-07-26T16:45:12.930Z,4.80
2017-07-26T16:47:39.775Z,5.70
2017-07-26T16:50:06.728Z,5.10
2017-07-26T16:52:33.660Z,5.93
2017-07-26T16:55:00.591Z,5.87
2017-07-26T16:57:27.426Z,7.50
2017-07-26T16:59:54.288Z,7.37
2017-07-26T17:02:21.319Z,7.13
2017-07-26T17:04:48.215Z,6.60
2017-07-26T17:07:15.806Z,6.00
2017-07-26T17:09:42.733Z,6.67
2017-07-26T17:12:09.678Z,5.77
2017-07-26T17:14:36.596Z,5.43
2017-07-26T17:17:03.513Z,5.43
2017-07-26T17:19:32.455Z,5.80
2017-07-26T17:21:59.768Z,5.77
2017-07-26T17:27:25.774Z,5.27
2017-07-26T17:29:52.724Z,5.63
2017-07-26T17:32:19.703Z,5.53
2017-07-26T17:34:51.940Z,6.13
2017-07-26T17:37:19.413Z,5.33
2017-07-26T17:39:46.711Z,4.83
2017-07-26T17:42:13.563Z,5.60
2017-07-26T17:44:43.219Z,5.60
2017-07-26T17:47:10.284Z,5.90
2017-07-26T17:49:37.140Z,6.00
2017-07-26T17:52:06.670Z,4.97
2017-07-26T17:54:36.377Z,5.20
2017-07-26T17:57:03.471Z,5.70
2017-07-26T17:59:33.495Z,5.40
2017-07-26T18:02:01.049Z,6.30
2017-07-26T18:04:40.107Z,6.00
2017-07-26T18:07:12.412Z,6.50
2017-07-26T18:09:46.612Z,6.03
2017-07-26T18:12:22.800Z,6.20
2017-07-26T18:14:56.584Z,6.67
2017-07-26T18:17:31.931Z,7.00
2017-07-26T18:19:59.265Z,6.27
2017-07-26T18:22:27.732Z,7.10
2017-07-26T18:24:55.135Z,6.53
2017-07-26T18:27:22.764Z,7.97
2017-07-26T18:29:52.095Z,7.80
2017-07-26T18:32:25.358Z,7.53
2017-07-26T18:34:56.403Z,7.40
2017-07-26T18:37:28.054Z,8.63
2017-07-26T18:40:06.419Z,8.57
2017-07-26T18:42:44.620Z,7.13
2017-07-26T18:45:12.540Z,7.80
2017-07-26T18:47:41.862Z,7.93
2017-07-26T18:50:09.598Z,8.30
2017-07-26T18:52:43.018Z,9.30
2017-07-26T18:55:16.972Z,9.57
2017-07-26T18:57:51.711Z,9.87
2017-07-26T19:00:26.061Z,9.97
2017-07-26T19:03:00.272Z,9.80
2017-07-26T19:05:30.707Z,8.67
2017-07-26T19:07:58.695Z,8.53
2017-07-26T19:10:31.422Z,20.97
2017-07-26T19:13:06.649Z,19.63
2017-07-26T19:15:34.448Z,9.80
2017-07-26T19:18:05.295Z,9.87
2017-07-26T19:20:39.224Z,9.30
2017-07-26T19:23:09.252Z,9.87
2017-07-26T19:25:43.445Z,8.67
2017-07-26T19:28:17.320Z,8.53
2017-07-26T19:30:47.275Z,8.87
2017-07-26T19:33:14.322Z,9.00
2017-07-26T19:35:41.200Z,9.13
2017-07-26T19:38:09.408Z,9.50
2017-07-26T19:40:38.262Z,10.63
2017-07-26T19:43:07.638Z,9.10
2017-07-26T19:45:35.981Z,9.87
2017-07-26T19:48:04.158Z,9.07
2017-07-26T19:50:37.652Z,9.07
2017-07-26T19:53:07.639Z,9.47
2017-07-26T19:55:39.461Z,8.97
2017-07-26T19:58:12.026Z,8.97
2017-07-26T20:00:39.847Z,10.17
2017-07-26T20:03:06.784Z,10.70
2017-07-26T20:05:33.681Z,10.17
2017-07-26T20:08:00.624Z,11.17
2017-07-26T20:10:28.487Z,11.20
2017-07-26T20:12:55.384Z,11.07
2017-07-26T20:15:27.879Z,10.00
2017-07-26T20:17:56.420Z,9.47
2017-07-26T20:20:25.270Z,9.53
2017-07-26T20:22:53.982Z,9.83
2017-07-26T20:25:22.539Z,10.03
2017-07-26T20:27:51.642Z,10.10
2017-07-26T20:30:23.362Z,9.53
2017-07-26T20:32:58.265Z,11.53
2017-07-26T20:35:27.064Z,10.00
2017-07-26T20:37:55.055Z,9.73
2017-07-26T20:40:24.033Z,10.13
2017-07-26T20:42:52.294Z,9.63
2017-07-26T20:45:21.610Z,9.33
2017-07-26T20:47:50.187Z,10.77
2017-07-26T20:50:26.073Z,9.40
2017-07-26T20:52:54.668Z,9.43
2017-07-26T20:55:24.505Z,9.20
2017-07-26T20:57:53.068Z,11.20
2017-07-26T21:00:24.781Z,10.67
2017-07-26T21:02:57.807Z,10.83
2017-07-26T21:05:26.247Z,10.30
2017-07-26T21:08:03.688Z,9.30
2017-07-26T21:10:43.717Z,9.17
2017-07-26T21:13:24.160Z,9.00
2017-07-26T21:16:02.635Z,8.70
2017-07-26T21:18:31.550Z,10.37
2017-07-26T21:21:00.850Z,9.23
2017-07-26T21:23:33.850Z,12.20
2017-07-26T21:26:05.193Z,9.50
2017-07-26T21:28:40.931Z,10.07
2017-07-26T21:31:13.415Z,9.10
2017-07-26T21:33:44.798Z,10.23
2017-07-26T21:36:13.899Z,10.97
2017-07-26T21:38:44.549Z,9.40
2017-07-26T21:41:13.268Z,9.70
2017-07-26T21:43:45.376Z,8.60
2017-07-26T21:46:23.761Z,10.67
2017-07-26T21:48:53.164Z,9.50
2017-07-26T21:51:21.938Z,9.70
2017-07-26T21:53:51.645Z,10.80
2017-07-26T21:56:20.872Z,8.90
2017-07-26T21:58:51.428Z,8.73
2017-07-26T22:01:19.813Z,10.73
2017-07-26T22:03:47.844Z,8.53
2017-07-26T22:06:17.083Z,8.67
2017-07-26T22:08:46.522Z,10.33
2017-07-26T22:11:14.025Z,8.97
2017-07-26T22:13:42.919Z,8.90
2017-07-26T22:16:11.337Z,9.97
2017-07-26T22:18:38.209Z,10.50
2017-07-26T22:21:05.155Z,9.40
2017-07-26T22:23:31.987Z,8.70
2017-07-26T22:25:58.875Z,8.87
2017-07-26T22:28:26.537Z,10.17
2017-07-26T22:30:54.216Z,8.90
2017-07-26T22:33:21.156Z,9.70
2017-07-26T22:35:48.825Z,10.00
2017-07-26T22:38:15.832Z,10.20
2017-07-26T22:40:42.739Z,9.70
2017-07-26T22:43:09.601Z,7.77
2017-07-26T22:45:36.560Z,7.90
2017-07-26T22:48:03.431Z,9.23
2017-07-26T22:50:31.077Z,8.70
2017-07-26T22:52:58.029Z,9.57
2017-07-26T22:55:24.910Z,8.70
2017-07-26T22:57:51.771Z,8.40
2017-07-26T23:00:18.777Z,8.23
2017-07-26T23:02:46.366Z,7.63
2017-07-26T23:05:13.256Z,8.60
2017-07-26T23:07:40.171Z,7.87
2017-07-26T23:10:07.060Z,9.17
2017-07-26T23:12:33.945Z,8.67
2017-07-26T23:15:00.880Z,8.13
2017-07-26T23:17:27.729Z,8.20
2017-07-26T23:19:54.577Z,8.07
2017-07-26T23:22:21.494Z,7.87
2017-07-26T23:24:48.355Z,8.23
2017-07-26T23:27:16.031Z,8.10
2017-07-26T23:29:42.895Z,7.73
2017-07-26T23:32:09.759Z,7.80
2017-07-26T23:34:36.704Z,7.70
2017-07-26T23:37:03.559Z,8.47
2017-07-26T23:39:30.422Z,8.40
2017-07-26T23:41:57.339Z,9.23
2017-07-26T23:44:24.183Z,8.27
2017-07-26T23:46:51.127Z,8.20
2017-07-26T23:49:17.944Z,7.90
2017-07-26T23:51:44.794Z,7.40
2017-07-26T23:54:11.728Z,8.37
2017-07-26T23:56:38.703Z,8.03
2017-07-26T23:59:05.555Z,7.57
